Terminal Aerodrome Forecast
Issued by NWS

Home | Current Version | Previous Version | Graphics & Text | Print | Product List | Glossary On
Versions: 1 2 3 4 5 6 7 8 9 10 11 12 13 14 15 16 17 18 19 20 21 22 23 24 25 26 27 28 29 30 31 32 33
000
FTUS43 KLOT 142200 AAC
TAFORD
TAF AMD
KORD 142210Z 1422/1524 34013G21KT 5SM -SN OVC025
     FM142300 34012G18KT 1 1/2SM -SN OVC015
      TEMPO 1423/1502 3/4SM -SN BKN008 BKN012
     FM150200 35012G18KT P6SM VCSH BKN020
     FM150600 34011KT P6SM FEW030
     FM151500 31009KT P6SM SCT040=

USA.gov is the U.S. government's official web portal to all federal, state and local government web resources and services.